createdAt,value
2022-11-25T00:00:26.536Z,99422.41
2022-11-25T00:02:54.295Z,99419.72
2022-11-25T00:05:28.730Z,99398.09
2022-11-25T00:07:57.731Z,99424.13
2022-11-25T00:10:25.545Z,99414.44
2022-11-25T00:12:53.204Z,99410.16
2022-11-25T00:15:20.952Z,99430.22
2022-11-25T00:17:48.762Z,99418.84
2022-11-25T00:20:16.668Z,99414.50
2022-11-25T00:22:45.141Z,99404.03
2022-11-25T00:25:14.376Z,99414.50
2022-11-25T00:27:43.637Z,99412.78
2022-11-25T00:30:12.376Z,99421.63
2022-11-25T00:32:40.071Z,99406.78
2022-11-25T00:35:08.402Z,99387.50
2022-11-25T00:37:36.115Z,99312.25
2022-11-25T00:40:04.006Z,99386.78
2022-11-25T00:42:50.630Z,99389.41
2022-11-25T00:45:18.241Z,99394.66
2022-11-25T00:47:46.019Z,99398.09
2022-11-25T00:50:13.671Z,99404.34
2022-11-25T00:52:41.448Z,99376.44
2022-11-25T00:55:09.909Z,99381.69
2022-11-25T00:57:38.988Z,99387.84
2022-11-25T01:00:07.918Z,99383.56
2022-11-25T01:02:35.710Z,99396.66
2022-11-25T01:05:04.055Z,99375.72
2022-11-25T01:07:31.823Z,99373.22
2022-11-25T01:09:59.458Z,99392.41
2022-11-25T01:12:27.235Z,99384.59
2022-11-25T01:14:56.237Z,99386.47
2022-11-25T01:17:23.978Z,99395.06
2022-11-25T01:19:51.750Z,99397.88
2022-11-25T01:22:19.424Z,99391.66
2022-11-25T01:24:47.221Z,99395.16
2022-11-25T01:29:42.976Z,99302.81
2022-11-25T01:32:12.019Z,99201.41
2022-11-25T01:34:39.667Z,99473.50
2022-11-25T01:37:07.471Z,99317.16
2022-11-25T01:39:35.170Z,98984.47
2022-11-25T01:42:03.166Z,99287.59
2022-11-25T01:44:31.316Z,99173.19
2022-11-25T01:47:01.871Z,99101.28
2022-11-25T01:49:37.200Z,99287.31
2022-11-25T01:52:09.783Z,99261.22
2022-11-25T01:54:39.577Z,99312.13
2022-11-25T01:57:12.122Z,99126.00
2022-11-25T01:59:43.225Z,99129.59
2022-11-25T02:02:10.913Z,99374.66
2022-11-25T02:04:40.909Z,99402.06
2022-11-25T02:07:10.994Z,99206.88
2022-11-25T02:09:39.378Z,99257.50
2022-11-25T02:12:07.411Z,99367.88
2022-11-25T02:14:35.461Z,99241.78
2022-11-25T02:17:03.268Z,99235.09
2022-11-25T02:19:35.463Z,99367.72
2022-11-25T02:22:04.679Z,99109.28
2022-11-25T02:24:35.011Z,99414.34
2022-11-25T02:27:04.390Z,99234.75
2022-11-25T02:29:32.067Z,99291.25
2022-11-25T02:31:59.745Z,99290.19
2022-11-25T02:34:27.445Z,99288.56
2022-11-25T02:36:55.206Z,99334.78
2022-11-25T02:39:22.831Z,99359.72
2022-11-25T02:41:52.219Z,99335.31
2022-11-25T02:44:21.597Z,99359.69
2022-11-25T02:46:49.656Z,99259.72
2022-11-25T02:49:17.392Z,99358.13
2022-11-25T02:51:45.939Z,99390.16
2022-11-25T02:54:13.820Z,99171.25
2022-11-25T02:56:41.586Z,99083.94
2022-11-25T02:59:09.412Z,99100.47
2022-11-25T03:01:38.977Z,99259.78
2022-11-25T03:04:06.825Z,99306.84
2022-11-25T03:06:34.645Z,99242.22
2022-11-25T03:09:02.413Z,99264.56
2022-11-25T03:11:44.031Z,99282.25
2022-11-25T03:14:11.710Z,99070.06
2022-11-25T03:16:40.890Z,99146.75
2022-11-25T03:19:08.872Z,99280.47
2022-11-25T03:21:36.638Z,99114.19
2022-11-25T03:24:04.647Z,99333.34
2022-11-25T03:26:32.447Z,99160.19
2022-11-25T03:29:00.114Z,99230.25
2022-11-25T03:31:27.862Z,99255.50
2022-11-25T03:33:57.919Z,99293.53
2022-11-25T03:36:25.642Z,99311.31
2022-11-25T03:38:53.297Z,99121.53
2022-11-25T03:41:20.983Z,99226.94
2022-11-25T03:43:48.981Z,99182.94
2022-11-25T03:46:16.885Z,99423.41
2022-11-25T03:48:44.784Z,99079.16
2022-11-25T03:51:13.955Z,99078.13
2022-11-25T03:53:41.680Z,99260.88
2022-11-25T03:56:09.618Z,99239.97
2022-11-25T03:58:37.300Z,99144.00
2022-11-25T04:01:05.326Z,99272.44
2022-11-25T04:03:33.208Z,99288.13
2022-11-25T04:06:00.926Z,98980.13
2022-11-25T04:08:30.063Z,99405.88
2022-11-25T04:10:57.725Z,98936.47
2022-11-25T04:13:24.363Z,99290.94
2022-11-25T04:15:52.099Z,99328.75
2022-11-25T04:18:20.163Z,99415.56
2022-11-25T04:20:48.004Z,99386.75
2022-11-25T04:23:15.762Z,99332.34
2022-11-25T04:25:44.957Z,99182.56
2022-11-25T04:28:12.893Z,99251.31
2022-11-25T04:30:40.809Z,99248.13
2022-11-25T04:33:08.596Z,99076.81
2022-11-25T04:35:36.412Z,99103.31
2022-11-25T04:38:04.072Z,99171.38
2022-11-25T04:40:31.826Z,99328.81
2022-11-25T04:43:06.069Z,99115.59
2022-11-25T04:45:58.524Z,99338.09
2022-11-25T04:48:24.513Z,99200.97
2022-11-25T04:50:52.158Z,99116.25
2022-11-25T04:53:19.839Z,99203.47
2022-11-25T04:55:48.108Z,99322.66
2022-11-25T04:58:37.722Z,99429.25
2022-11-25T05:01:04.562Z,99413.34
2022-11-25T05:03:32.231Z,99313.34
2022-11-25T05:05:59.887Z,99471.31
2022-11-25T05:08:27.628Z,99395.88
2022-11-25T05:10:55.262Z,99219.56
2022-11-25T05:13:24.262Z,99426.25
2022-11-25T05:15:51.907Z,99280.13
2022-11-25T05:18:19.509Z,99419.28
2022-11-25T05:20:47.313Z,99418.13
2022-11-25T05:23:14.944Z,99478.59
2022-11-25T05:25:42.708Z,99500.06
2022-11-25T05:28:10.421Z,99418.06
2022-11-25T05:30:39.554Z,99323.91
2022-11-25T05:33:09.635Z,99293.25
2022-11-25T05:35:39.713Z,99357.41
2022-11-25T05:38:15.652Z,99371.47
2022-11-25T05:40:46.208Z,99439.59
2022-11-25T05:43:30.048Z,99551.94
2022-11-25T05:46:01.774Z,99018.38
2022-11-25T05:48:36.704Z,99090.28
2022-11-25T05:51:08.645Z,99254.50
2022-11-25T05:53:38.016Z,99225.41
2022-11-25T05:56:17.155Z,99436.72
2022-11-25T05:58:47.042Z,99195.25
2022-11-25T06:01:16.762Z,99281.88
2022-11-25T06:03:44.584Z,99190.94
2022-11-25T06:06:12.473Z,99144.97
2022-11-25T06:08:40.218Z,99428.16
2022-11-25T06:11:08.424Z,99408.28
2022-11-25T06:13:36.238Z,99438.44
2022-11-25T06:16:08.587Z,99266.00
2022-11-25T06:18:38.355Z,99286.25
2022-11-25T06:21:06.737Z,99375.69
2022-11-25T06:23:34.444Z,99385.84
2022-11-25T06:26:06.667Z,99524.06
2022-11-25T06:28:34.787Z,99313.75
2022-11-25T06:31:07.603Z,99558.88
2022-11-25T06:33:35.502Z,99414.91
2022-11-25T06:36:05.553Z,99537.72
2022-11-25T06:38:33.417Z,99240.22
2022-11-25T06:41:01.802Z,99434.44
2022-11-25T06:43:29.863Z,99271.97
2022-11-25T06:46:03.055Z,99291.91
2022-11-25T06:48:30.966Z,99281.03
2022-11-25T06:50:59.360Z,99457.75
2022-11-25T06:53:28.733Z,99343.53
2022-11-25T06:56:07.085Z,99321.72
2022-11-25T06:58:36.588Z,99311.53
2022-11-25T07:01:05.218Z,99460.50
2022-11-25T07:03:33.054Z,99229.22
2022-11-25T07:06:00.912Z,99335.69
2022-11-25T07:08:33.945Z,99485.75
2022-11-25T07:11:06.022Z,99575.72
2022-11-25T07:13:34.250Z,99535.00
2022-11-25T07:16:03.375Z,99444.81
2022-11-25T07:18:33.485Z,99513.28
2022-11-25T07:21:08.228Z,99463.88
2022-11-25T07:23:37.731Z,99229.38
2022-11-25T07:26:06.246Z,99500.56
2022-11-25T07:28:34.280Z,99472.72
2022-11-25T07:31:23.716Z,99381.69
2022-11-25T07:36:26.205Z,99563.25
2022-11-25T07:38:55.441Z,99574.59
2022-11-25T07:41:25.053Z,99583.38
2022-11-25T07:43:53.836Z,99579.84
2022-11-25T07:46:26.734Z,99585.97
2022-11-25T07:48:55.063Z,99585.91
2022-11-25T07:51:23.868Z,99562.56
2022-11-25T07:53:51.981Z,99595.44
2022-11-25T07:56:21.710Z,99597.22
2022-11-25T07:58:49.619Z,99604.13
2022-11-25T08:01:18.527Z,99601.53
2022-11-25T08:03:47.115Z,99610.22
2022-11-25T08:06:15.869Z,99606.09
2022-11-25T08:08:44.088Z,99611.13
2022-11-25T08:11:19.192Z,99622.44
2022-11-25T08:13:48.245Z,99621.47
2022-11-25T08:16:17.112Z,99598.84
2022-11-25T08:18:44.858Z,99634.28
2022-11-25T08:21:13.537Z,99629.78
2022-11-25T08:23:43.363Z,99634.00
2022-11-25T08:26:12.874Z,99639.03
2022-11-25T08:28:41.233Z,99636.28
2022-11-25T08:31:11.197Z,99640.69
2022-11-25T08:33:39.436Z,99641.47
2022-11-25T08:36:08.247Z,99650.13
2022-11-25T08:38:36.052Z,99650.97
2022-11-25T08:41:03.731Z,99620.53
2022-11-25T08:43:31.532Z,99650.81
2022-11-25T08:45:59.167Z,99654.22
2022-11-25T08:48:28.348Z,99661.13
2022-11-25T08:50:56.040Z,99666.22
2022-11-25T08:53:23.776Z,99671.16
2022-11-25T08:55:51.522Z,99670.91
2022-11-25T08:58:19.505Z,99676.97
2022-11-25T09:00:47.236Z,99674.34
2022-11-25T09:03:15.219Z,99679.53
2022-11-25T09:05:44.445Z,99676.91
2022-11-25T09:08:12.358Z,99682.84
2022-11-25T09:10:40.438Z,99676.63
2022-11-25T09:13:10.371Z,99681.44
2022-11-25T09:15:38.452Z,99649.72
2022-11-25T09:18:08.081Z,99688.00
2022-11-25T09:20:35.928Z,99691.00
2022-11-25T09:23:05.401Z,99691.56
2022-11-25T09:25:33.235Z,99689.59
2022-11-25T09:28:01.080Z,99701.84
2022-11-25T09:30:29.236Z,99699.72
2022-11-25T09:32:57.121Z,99685.59
2022-11-25T09:35:25.207Z,99673.44
2022-11-25T09:37:53.002Z,99718.94
2022-11-25T09:40:26.129Z,99668.69
2022-11-25T09:43:14.631Z,99708.75
2022-11-25T09:46:05.361Z,99723.28
2022-11-25T09:48:47.220Z,99728.09
2022-11-25T09:51:19.968Z,99694.41
2022-11-25T09:53:48.821Z,99751.34
2022-11-25T09:56:31.127Z,99742.50
2022-11-25T09:59:01.771Z,99736.50
2022-11-25T10:01:30.410Z,99741.28
2022-11-25T10:04:01.472Z,99745.38
2022-11-25T10:06:31.052Z,99746.84
2022-11-25T10:08:59.693Z,99753.19
2022-11-25T10:11:48.356Z,99704.81
2022-11-25T10:14:19.544Z,99763.72
2022-11-25T10:16:51.738Z,99748.44
2022-11-25T10:19:25.659Z,99750.25
2022-11-25T10:21:53.580Z,99750.59
2022-11-25T10:24:22.162Z,99755.28
2022-11-25T10:26:54.732Z,99755.28
2022-11-25T10:29:27.069Z,99715.69
2022-11-25T10:32:00.311Z,99701.91
2022-11-25T10:34:32.907Z,99778.47
2022-11-25T10:37:00.753Z,99777.63
2022-11-25T10:39:31.705Z,99776.00
2022-11-25T10:42:03.668Z,99765.84
2022-11-25T10:44:32.388Z,99784.53
2022-11-25T10:47:13.991Z,99789.66
2022-11-25T10:49:47.584Z,99784.16
2022-11-25T10:52:15.572Z,99785.44
2022-11-25T10:54:44.095Z,99781.22
2022-11-25T10:57:19.795Z,99784.09
2022-11-25T10:59:56.308Z,99789.22
2022-11-25T11:02:26.188Z,99791.81
2022-11-25T11:05:00.864Z,99785.31
2022-11-25T11:07:29.507Z,99807.44
2022-11-25T11:10:14.981Z,99794.28
2022-11-25T11:12:52.833Z,99779.44
2022-11-25T11:15:21.995Z,99792.53
2022-11-25T11:17:49.790Z,99811.53
2022-11-25T11:20:24.095Z,99806.34
2022-11-25T11:22:56.568Z,99805.84
2022-11-25T11:25:30.499Z,99822.81
2022-11-25T11:27:59.634Z,99818.97
2022-11-25T11:30:28.349Z,99793.34
2022-11-25T11:32:58.458Z,99817.19
2022-11-25T11:35:28.582Z,99775.91
2022-11-25T11:37:58.239Z,99764.13
2022-11-25T11:40:32.238Z,99820.88
2022-11-25T11:43:10.228Z,99810.06
2022-11-25T11:45:55.276Z,99823.19
2022-11-25T11:48:28.394Z,99813.84
2022-11-25T11:51:01.663Z,99793.91
2022-11-25T11:53:31.673Z,99818.63
2022-11-25T11:58:59.028Z,99802.03
2022-11-25T12:01:35.182Z,99822.47
2022-11-25T12:04:04.954Z,99824.91
2022-11-25T12:06:33.082Z,99838.16
2022-11-25T12:09:02.095Z,99814.59
2022-11-25T12:11:31.345Z,99832.34
2022-11-25T12:14:01.800Z,99836.72
2022-11-25T12:16:32.701Z,99839.81
2022-11-25T12:19:03.150Z,99843.28
2022-11-25T12:21:42.321Z,99775.69
2022-11-25T12:24:15.140Z,99847.94
2022-11-25T12:26:47.771Z,99851.13
2022-11-25T12:29:21.073Z,99858.53
2022-11-25T12:31:51.198Z,99803.81
2022-11-25T12:34:21.829Z,99864.47
2022-11-25T12:36:49.595Z,99862.66
2022-11-25T12:39:21.830Z,99861.78
2022-11-25T12:41:51.836Z,99837.63
2022-11-25T12:44:22.270Z,99853.38
2022-11-25T12:46:50.634Z,99879.72
2022-11-25T12:49:20.185Z,99879.91
2022-11-25T12:52:03.081Z,99880.06
2022-11-25T12:54:44.772Z,99888.81
2022-11-25T12:57:29.199Z,99890.59
2022-11-25T13:00:39.817Z,99895.88
2022-11-25T13:03:15.647Z,99910.69
2022-11-25T13:06:06.902Z,99883.31
2022-11-25T13:08:46.586Z,99898.56
2022-11-25T13:11:24.136Z,99903.03
2022-11-25T13:13:55.897Z,99903.88
2022-11-25T13:16:25.787Z,99866.81
2022-11-25T13:18:53.795Z,99919.72
2022-11-25T13:21:22.415Z,99918.16
2022-11-25T13:23:52.104Z,99927.00
2022-11-25T13:26:57.140Z,99931.47
2022-11-25T13:30:02.010Z,99924.69
2022-11-25T13:32:42.060Z,99936.28
2022-11-25T13:35:37.976Z,99931.09
2022-11-25T13:38:48.761Z,99931.97
2022-11-25T13:41:24.588Z,99931.16
2022-11-25T13:44:01.126Z,99925.25
2022-11-25T13:46:31.372Z,99948.63
2022-11-25T13:49:01.582Z,99947.84
2022-11-25T13:51:29.204Z,99955.75
2022-11-25T13:53:58.249Z,99957.63
2022-11-25T13:56:28.210Z,99964.66
2022-11-25T13:59:20.746Z,99954.81
2022-11-25T14:01:54.741Z,99961.63
2022-11-25T14:04:32.796Z,99943.56
2022-11-25T14:07:07.373Z,99981.00
2022-11-25T14:09:42.645Z,99968.91
2022-11-25T14:12:34.667Z,99978.72
2022-11-25T14:15:47.079Z,99977.94
2022-11-25T14:18:44.366Z,99973.03
2022-11-25T14:21:17.464Z,99982.69
2022-11-25T14:23:54.201Z,99971.56
2022-11-25T14:26:48.826Z,99990.91
2022-11-25T14:29:18.301Z,99997.97
2022-11-25T14:31:47.940Z,99995.44
2022-11-25T14:34:16.902Z,99969.50
2022-11-25T14:36:47.220Z,100007.81
2022-11-25T14:39:17.772Z,100006.06
2022-11-25T14:41:49.208Z,100008.69
2022-11-25T14:44:19.151Z,100013.06
2022-11-25T14:46:53.125Z,100011.28
2022-11-25T14:52:11.617Z,100023.56
2022-11-25T14:54:42.173Z,100022.69
2022-11-25T14:57:10.251Z,100028.75
2022-11-25T14:59:42.122Z,100032.25
2022-11-25T15:02:28.668Z,100041.03
2022-11-25T15:05:03.250Z,100032.31
2022-11-25T15:07:32.920Z,100021.03
2022-11-25T15:10:00.663Z,100038.53
2022-11-25T15:12:29.942Z,100035.06
2022-11-25T15:14:57.595Z,100047.31
2022-11-25T15:17:27.640Z,100043.91
2022-11-25T15:19:55.495Z,100060.41
2022-11-25T15:22:24.492Z,100059.53
2022-11-25T15:24:56.044Z,100056.94
2022-11-25T15:27:26.082Z,100062.31
2022-11-25T15:29:54.771Z,100073.59
2022-11-25T15:32:25.331Z,100072.78
2022-11-25T15:34:53.389Z,100067.56
2022-11-25T15:37:21.068Z,100060.84
2022-11-25T15:39:48.885Z,100077.28
2022-11-25T15:42:20.039Z,100081.69
2022-11-25T15:44:49.892Z,100088.69
2022-11-25T15:47:20.501Z,100094.03
2022-11-25T15:49:49.030Z,100098.47
2022-11-25T15:52:17.905Z,100067.31
2022-11-25T15:54:46.833Z,100108.13
2022-11-25T15:57:18.603Z,100110.03
2022-11-25T15:59:51.162Z,100138.03
2022-11-25T16:02:38.834Z,100123.09
2022-11-25T16:05:35.859Z,100139.75
2022-11-25T16:08:31.371Z,100127.59
2022-11-25T16:11:00.493Z,100143.38
2022-11-25T16:13:34.341Z,100139.00
2022-11-25T16:16:05.910Z,100142.47
2022-11-25T16:18:42.339Z,100146.84
2022-11-25T16:21:11.519Z,100139.97
2022-11-25T16:23:41.648Z,100158.31
2022-11-25T16:26:15.913Z,100163.56
2022-11-25T16:28:52.070Z,100169.72
2022-11-25T16:31:19.776Z,100169.69
2022-11-25T16:33:47.539Z,100160.13
2022-11-25T16:36:15.211Z,100171.47
2022-11-25T16:38:42.948Z,100179.34
2022-11-25T16:41:12.099Z,100180.31
2022-11-25T16:43:40.380Z,100188.16
2022-11-25T16:46:11.655Z,100185.56
2022-11-25T16:48:39.372Z,100126.41
2022-11-25T16:51:09.805Z,100189.19
2022-11-25T16:53:37.457Z,100181.31
2022-11-25T16:56:05.509Z,100190.09
2022-11-25T16:58:33.095Z,100203.25
2022-11-25T17:01:00.762Z,100205.88
2022-11-25T17:03:29.886Z,100211.19
2022-11-25T17:05:58.042Z,100215.56
2022-11-25T17:08:25.768Z,100219.06
2022-11-25T17:10:53.465Z,100213.84
2022-11-25T17:13:23.185Z,100221.72
2022-11-25T17:15:50.942Z,100231.38
2022-11-25T17:18:19.317Z,100227.97
2022-11-25T17:20:48.355Z,100236.75
2022-11-25T17:23:16.753Z,100231.50
2022-11-25T17:25:47.190Z,100209.78
2022-11-25T17:28:16.103Z,100239.38
2022-11-25T17:30:43.886Z,100259.47
2022-11-25T17:33:14.153Z,100263.00
2022-11-25T17:35:42.001Z,100263.88
2022-11-25T17:38:12.951Z,100269.13
2022-11-25T17:40:43.151Z,100269.13
2022-11-25T17:45:46.706Z,100281.38
2022-11-25T17:48:16.492Z,100281.38
2022-11-25T17:50:45.361Z,100291.00
2022-11-25T17:53:15.634Z,100289.31
2022-11-25T17:55:43.595Z,100302.41
2022-11-25T17:58:11.639Z,100313.81
2022-11-25T18:00:40.613Z,100315.59
2022-11-25T18:03:10.803Z,100314.72
2022-11-25T18:05:38.559Z,100326.13
2022-11-25T18:08:06.265Z,100318.28
2022-11-25T18:10:35.301Z,100325.31
2022-11-25T18:13:02.980Z,100329.69
2022-11-25T18:15:32.185Z,100337.59
2022-11-25T18:18:02.070Z,100339.34
2022-11-25T18:20:32.267Z,100346.38
2022-11-25T18:23:00.180Z,100313.19
2022-11-25T18:25:29.543Z,100342.06
2022-11-25T18:27:59.909Z,100338.66
2022-11-25T18:30:29.341Z,100331.72
2022-11-25T18:32:57.368Z,100364.06
2022-11-25T18:35:27.018Z,100368.47
2022-11-25T18:37:56.777Z,100371.97
2022-11-25T18:40:24.996Z,100374.59
2022-11-25T18:42:54.539Z,100350.31
2022-11-25T18:45:24.532Z,100378.97
2022-11-25T18:47:52.193Z,100379.91
2022-11-25T18:50:20.864Z,100393.88
2022-11-25T18:52:48.834Z,100394.81
2022-11-25T18:55:17.475Z,100371.28
2022-11-25T18:57:52.545Z,100366.09
2022-11-25T19:00:32.357Z,100404.53
2022-11-25T19:03:02.091Z,100388.00
2022-11-25T19:05:31.074Z,100409.81
2022-11-25T19:07:58.817Z,100419.38
2022-11-25T19:10:28.360Z,100418.47
2022-11-25T19:12:57.204Z,100425.50
2022-11-25T19:15:24.890Z,100433.38
2022-11-25T19:17:54.990Z,100443.03
2022-11-25T19:20:24.963Z,100440.41
2022-11-25T19:22:56.622Z,100441.31
2022-11-25T19:25:27.967Z,100441.34
2022-11-25T19:27:56.985Z,100435.25
2022-11-25T19:30:25.562Z,100451.84
2022-11-25T19:32:54.767Z,100397.75
2022-11-25T19:35:27.480Z,100455.38
2022-11-25T19:37:55.156Z,100469.34
2022-11-25T19:40:25.034Z,100467.59
2022-11-25T19:42:52.742Z,100469.34
2022-11-25T19:45:21.163Z,100472.84
2022-11-25T19:47:50.386Z,100471.06
2022-11-25T19:50:21.332Z,100467.63
2022-11-25T19:52:50.769Z,100490.31
2022-11-25T19:55:19.599Z,100434.47
2022-11-25T19:57:47.286Z,100491.19
2022-11-25T20:00:15.919Z,100500.78
2022-11-25T20:02:43.894Z,100496.44
2022-11-25T20:05:12.352Z,100512.19
2022-11-25T20:07:40.065Z,100509.56
2022-11-25T20:10:16.755Z,100511.31
2022-11-25T20:12:44.408Z,100506.06
2022-11-25T20:15:12.353Z,100507.81
2022-11-25T20:17:40.700Z,100517.47
2022-11-25T20:20:12.068Z,100518.34
2022-11-25T20:22:41.123Z,100507.00
2022-11-25T20:25:12.246Z,100529.75
2022-11-25T20:27:39.872Z,100534.13
2022-11-25T20:30:13.876Z,100535.00
2022-11-25T20:32:41.639Z,100545.53
2022-11-25T20:35:10.959Z,100544.63
2022-11-25T20:37:50.618Z,100555.16
2022-11-25T20:40:21.313Z,100522.81
2022-11-25T20:42:49.597Z,100519.31
2022-11-25T20:45:17.722Z,100559.53
2022-11-25T20:47:47.029Z,100562.16
2022-11-25T20:50:14.932Z,100570.03
2022-11-25T20:52:42.792Z,100556.94
2022-11-25T20:55:19.280Z,100564.81
2022-11-25T20:57:47.095Z,100579.66
2022-11-25T21:00:19.306Z,100580.50
2022-11-25T21:02:47.072Z,100586.63
2022-11-25T21:05:15.318Z,100580.53
2022-11-25T21:07:43.119Z,100584.03
2022-11-25T21:10:21.201Z,100589.28
2022-11-25T21:12:48.887Z,100602.38
2022-11-25T21:15:17.592Z,100607.66
2022-11-25T21:17:45.268Z,100528.06
2022-11-25T21:20:14.763Z,100631.25
2022-11-25T21:22:44.099Z,100614.66
2022-11-25T21:25:13.050Z,100621.66
2022-11-25T21:27:42.165Z,100618.16
2022-11-25T21:30:17.804Z,100623.41
2022-11-25T21:32:45.515Z,100576.16
2022-11-25T21:35:13.291Z,100619.88
2022-11-25T21:37:41.632Z,100614.66
2022-11-25T21:40:11.913Z,100632.13
2022-11-25T21:42:39.556Z,100644.41
2022-11-25T21:45:11.591Z,100633.88
2022-11-25T21:47:39.503Z,100643.53
2022-11-25T21:50:13.339Z,100647.88
2022-11-25T21:52:41.024Z,100653.13
2022-11-25T21:55:10.538Z,100655.75
2022-11-25T21:57:38.167Z,100648.75
2022-11-25T22:00:18.423Z,100658.38
2022-11-25T22:02:46.085Z,100658.38
2022-11-25T22:05:14.765Z,100666.25
2022-11-25T22:07:42.383Z,100658.38
2022-11-25T22:10:10.492Z,100664.53
2022-11-25T22:12:41.403Z,100665.38
2022-11-25T22:15:14.076Z,100642.63
2022-11-25T22:17:41.772Z,100681.13
2022-11-25T22:20:19.462Z,100680.25
2022-11-25T22:22:47.072Z,100690.75
2022-11-25T22:25:14.929Z,100646.13
2022-11-25T22:27:42.571Z,100695.13
2022-11-25T22:30:15.038Z,100687.28
2022-11-25T22:32:42.685Z,100703.00
2022-11-25T22:35:16.985Z,100695.13
2022-11-25T22:37:44.869Z,100731.00
2022-11-25T22:40:13.386Z,100692.50
2022-11-25T22:42:41.435Z,100698.63
2022-11-25T22:45:18.688Z,100689.00
2022-11-25T22:47:46.785Z,100647.00
2022-11-25T22:50:18.983Z,100718.75
2022-11-25T22:52:46.662Z,100724.00
2022-11-25T22:55:17.772Z,100733.63
2022-11-25T22:57:45.437Z,100742.34
2022-11-25T23:00:19.340Z,100734.47
2022-11-25T23:02:47.285Z,100736.25
2022-11-25T23:05:16.601Z,100740.59
2022-11-25T23:07:44.391Z,100748.47
2022-11-25T23:10:17.127Z,100734.47
2022-11-25T23:12:44.788Z,100695.06
2022-11-25T23:15:15.968Z,100710.81
2022-11-25T23:17:49.121Z,100742.31
2022-11-25T23:20:20.689Z,100732.66
2022-11-25T23:22:48.567Z,100763.31
2022-11-25T23:25:17.436Z,100763.28
2022-11-25T23:27:45.162Z,100755.44
2022-11-25T23:30:16.484Z,100722.13
2022-11-25T23:32:45.600Z,100765.03
2022-11-25T23:35:17.295Z,100764.16
2022-11-25T23:37:45.127Z,100785.16
2022-11-25T23:40:18.994Z,100743.88
2022-11-25T23:42:46.973Z,100754.47
2022-11-25T23:45:16.237Z,100828.81
2022-11-25T23:47:46.239Z,100566.63
2022-11-25T23:50:24.888Z,100806.06
2022-11-25T23:52:52.654Z,100689.47
2022-11-25T23:55:22.949Z,100608.03
2022-11-25T23:57:50.688Z,100466.91
